Time;durP1;ratioP1;P1;durP2;ratioP2;P2;SDS_P1;SDS_P2;PMS_P1;PMS_P2;Temp;Humidity;BMP_temperature;BMP_pressure;BME280_temperature;BME280_humidity;BME280_pressure;Samples;Min_cycle;Max_cycle;Signal;HPM_P1;HPM_P2
2022/08/23 00:01:25;;;;;;;6.85;4.10;;;;;;;;;;5102798;28;20093;-77
2022/08/23 00:03:52;;;;;;;6.15;3.92;;;;;;;;;;5116431;27;20501;-77
2022/08/23 00:06:18;;;;;;;8.55;4.47;;;;;;;;;;5111800;27;20036;-77
2022/08/23 00:08:45;;;;;;;12.77;5.22;;;;;;;;;;5114992;27;20114;-77
2022/08/23 00:11:31;;;;;;;7.53;4.70;;;;;;;;;;5099607;28;20061;-77
2022/08/23 00:13:59;;;;;;;9.90;4.63;;;;;;;;;;5100033;27;20084;-77
2022/08/23 00:16:25;;;;;;;8.90;4.18;;;;;;;;;;5089509;28;20036;-77
2022/08/23 00:18:51;;;;;;;6.78;4.93;;;;;;;;;;5115072;27;20093;-77
2022/08/23 00:21:18;;;;;;;6.22;4.93;;;;;;;;;;5095175;28;20051;-77
2022/08/23 00:23:44;;;;;;;10.93;5.82;;;;;;;;;;5106691;27;20039;-77
2022/08/23 00:26:11;;;;;;;8.98;5.60;;;;;;;;;;5098622;28;20043;-77
2022/08/23 00:28:37;;;;;;;13.73;6.55;;;;;;;;;;5094319;28;20036;-77
2022/08/23 00:31:03;;;;;;;14.32;7.13;;;;;;;;;;5111463;27;20036;-77
2022/08/23 00:33:29;;;;;;;10.73;6.80;;;;;;;;;;5116590;27;20403;-77
2022/08/23 00:35:55;;;;;;;10.02;6.90;;;;;;;;;;5124572;27;20066;-77
2022/08/23 00:38:22;;;;;;;9.18;6.75;;;;;;;;;;5114942;27;20450;-77
2022/08/23 00:40:50;;;;;;;15.07;8.07;;;;;;;;;;5115121;27;20039;-77
2022/08/23 00:48:50;;;;;;;9.82;7.47;;;;;;;;;;5092066;28;20117;-77
2022/08/23 00:51:26;;;;;;;14.77;7.88;;;;;;;;;;5106419;28;20044;-77
2022/08/23 00:53:58;;;;;;;10.63;8.02;;;;;;;;;;5094143;28;20398;-77
2022/08/23 00:56:26;;;;;;;12.55;7.55;;;;;;;;;;5091529;28;20445;-77
2022/08/23 00:58:52;;;;;;;9.73;7.13;;;;;;;;;;5090824;28;20037;-77
2022/08/23 01:01:19;;;;;;;12.38;7.60;;;;;;;;;;5099304;28;20477;-77
2022/08/23 01:03:49;;;;;;;18.45;8.05;;;;;;;;;;5100779;28;20044;-77
2022/08/23 01:06:42;;;;;;;10.63;7.35;;;;;;;;;;5093095;28;20055;-77
2022/08/23 01:09:11;;;;;;;11.82;6.68;;;;;;;;;;5085090;28;20048;-77
2022/08/23 01:11:53;;;;;;;13.77;8.20;;;;;;;;;;5082916;28;20490;-77
2022/08/23 01:14:39;;;;;;;11.38;7.70;;;;;;;;;;5091695;28;20399;-77
2022/08/23 01:17:09;;;;;;;13.65;9.13;;;;;;;;;;5093728;28;20063;-77
2022/08/23 01:19:37;;;;;;;10.50;7.72;;;;;;;;;;5090444;28;20078;-77
2022/08/23 01:22:16;;;;;;;13.10;7.40;;;;;;;;;;5082324;28;20193;-77
2022/08/23 01:24:43;;;;;;;11.05;7.82;;;;;;;;;;5078738;28;20039;-77
2022/08/23 01:27:11;;;;;;;11.80;6.78;;;;;;;;;;5083085;28;20041;-76
2022/08/23 01:29:37;;;;;;;12.85;8.07;;;;;;;;;;5082133;28;20512;-77
2022/08/23 01:32:04;;;;;;;9.90;8.18;;;;;;;;;;5077854;28;20036;-77
2022/08/23 01:34:30;;;;;;;10.80;7.65;;;;;;;;;;5082035;28;20072;-76
2022/08/23 01:36:57;;;;;;;10.70;8.00;;;;;;;;;;5087130;28;20046;-76
2022/08/23 01:39:23;;;;;;;13.68;7.22;;;;;;;;;;5090331;28;20075;-77
2022/08/23 01:41:50;;;;;;;9.75;7.57;;;;;;;;;;5081506;28;20040;-77
2022/08/23 01:44:16;;;;;;;11.70;7.05;;;;;;;;;;5084338;28;20054;-77
2022/08/23 01:46:44;;;;;;;10.57;7.03;;;;;;;;;;5094728;27;20059;-77
2022/08/23 01:49:11;;;;;;;15.93;9.15;;;;;;;;;;5111768;28;20035;-77
2022/08/23 01:51:37;;;;;;;11.82;7.82;;;;;;;;;;5093465;28;20100;-77
2022/08/23 01:54:04;;;;;;;14.48;8.70;;;;;;;;;;5120100;27;20040;-76
2022/08/23 01:56:31;;;;;;;12.55;8.07;;;;;;;;;;5092519;28;20035;-77
2022/08/23 01:58:57;;;;;;;13.60;8.15;;;;;;;;;;5087297;28;20043;-76
2022/08/23 02:01:23;;;;;;;11.80;8.05;;;;;;;;;;5084115;28;20043;-76
2022/08/23 02:03:50;;;;;;;13.75;8.13;;;;;;;;;;5100581;27;20043;-76
2022/08/23 02:06:16;;;;;;;11.02;7.75;;;;;;;;;;5109455;27;20031;-77
2022/08/23 02:09:00;;;;;;;13.43;8.15;;;;;;;;;;5108244;27;20086;-77
2022/08/23 02:11:27;;;;;;;12.63;7.43;;;;;;;;;;5091109;28;20340;-77
2022/08/23 02:13:55;;;;;;;10.95;8.38;;;;;;;;;;5101600;27;20301;-77
2022/08/23 02:16:23;;;;;;;14.07;8.07;;;;;;;;;;5077264;28;20050;-77
2022/08/23 02:18:49;;;;;;;14.15;8.70;;;;;;;;;;5084407;28;20036;-77
2022/08/23 02:21:16;;;;;;;11.27;8.45;;;;;;;;;;5109364;27;20043;-77
2022/08/23 02:23:42;;;;;;;10.85;7.60;;;;;;;;;;5109576;28;20434;-77
2022/08/23 02:26:08;;;;;;;12.00;8.05;;;;;;;;;;5110326;28;20081;-76
2022/08/23 02:28:34;;;;;;;14.98;9.68;;;;;;;;;;5070576;28;20031;-76
2022/08/23 02:31:01;;;;;;;9.73;7.13;;;;;;;;;;5084893;28;20044;-77
2022/08/23 02:33:27;;;;;;;11.63;8.10;;;;;;;;;;5110032;27;20031;-77
2022/08/23 02:35:53;;;;;;;11.30;7.28;;;;;;;;;;5091296;28;20050;-77
2022/08/23 02:38:19;;;;;;;16.70;8.05;;;;;;;;;;5060964;28;20666;-77
2022/08/23 02:40:47;;;;;;;12.88;9.15;;;;;;;;;;5086805;28;20413;-77
2022/08/23 02:43:13;;;;;;;12.52;7.47;;;;;;;;;;5109917;27;20191;-77
2022/08/23 02:45:39;;;;;;;11.43;8.20;;;;;;;;;;5058126;28;20084;-76
2022/08/23 02:48:07;;;;;;;11.05;7.85;;;;;;;;;;5094071;28;20055;-76
2022/08/23 02:50:34;;;;;;;10.80;8.10;;;;;;;;;;5093919;28;20131;-77
2022/08/23 02:53:00;;;;;;;13.50;7.72;;;;;;;;;;5088573;28;20036;-76
2022/08/23 02:55:26;;;;;;;12.57;8.15;;;;;;;;;;5102413;28;20036;-77
2022/08/23 02:57:53;;;;;;;10.63;7.22;;;;;;;;;;5096928;28;20051;-76
2022/08/23 03:00:20;;;;;;;12.82;8.02;;;;;;;;;;5090955;28;20032;-77
2022/08/23 03:02:46;;;;;;;14.55;7.80;;;;;;;;;;5095025;28;20040;-77
2022/08/23 03:05:13;;;;;;;11.90;7.75;;;;;;;;;;5088036;28;20130;-77
2022/08/23 03:07:39;;;;;;;11.38;8.30;;;;;;;;;;5084443;28;20093;-77
2022/08/23 03:10:06;;;;;;;9.07;6.93;;;;;;;;;;5076744;28;20072;-77
2022/08/23 03:12:32;;;;;;;14.25;8.48;;;;;;;;;;5086688;28;20496;-76
2022/08/23 03:14:58;;;;;;;13.65;8.18;;;;;;;;;;5096971;28;20036;-77
2022/08/23 03:17:24;;;;;;;9.98;7.82;;;;;;;;;;5089480;28;20028;-77
2022/08/23 03:19:53;;;;;;;9.30;7.97;;;;;;;;;;5084933;28;20037;-77
2022/08/23 03:22:22;;;;;;;13.63;8.05;;;;;;;;;;5084971;28;20035;-77
2022/08/23 03:24:48;;;;;;;11.95;8.68;;;;;;;;;;5088142;28;20058;-77
2022/08/23 03:27:15;;;;;;;9.85;7.85;;;;;;;;;;5088205;28;20401;-77
2022/08/23 03:29:41;;;;;;;11.27;8.73;;;;;;;;;;5085179;28;20041;-76
2022/08/23 03:32:07;;;;;;;11.75;8.20;;;;;;;;;;5085570;28;20285;-77
2022/08/23 03:34:33;;;;;;;8.90;7.80;;;;;;;;;;5088618;28;20466;-77
2022/08/23 03:36:59;;;;;;;10.80;7.93;;;;;;;;;;5087292;28;20087;-76
2022/08/23 03:39:26;;;;;;;11.88;8.90;;;;;;;;;;5085006;28;20039;-77
2022/08/23 03:41:52;;;;;;;11.60;9.25;;;;;;;;;;5084909;28;20374;-77
2022/08/23 03:44:18;;;;;;;10.98;8.32;;;;;;;;;;5091994;28;20043;-77
2022/08/23 03:46:44;;;;;;;14.18;8.07;;;;;;;;;;5085181;28;20056;-77
2022/08/23 03:49:10;;;;;;;15.57;9.55;;;;;;;;;;5097279;28;20082;-77
2022/08/23 03:51:36;;;;;;;20.58;10.80;;;;;;;;;;5097478;28;20036;-76
2022/08/23 03:54:03;;;;;;;14.48;9.13;;;;;;;;;;5087498;28;20036;-77
2022/08/23 03:56:31;;;;;;;17.75;9.15;;;;;;;;;;5086017;28;20029;-77
2022/08/23 03:58:59;;;;;;;14.32;9.43;;;;;;;;;;5088754;28;20070;-76
2022/08/23 04:01:25;;;;;;;10.32;7.85;;;;;;;;;;5086639;28;20052;-76
2022/08/23 04:03:52;;;;;;;11.55;9.60;;;;;;;;;;5080565;28;20048;-77
2022/08/23 04:06:18;;;;;;;16.92;9.32;;;;;;;;;;5089030;28;20039;-77
2022/08/23 04:08:45;;;;;;;12.93;8.68;;;;;;;;;;5088355;28;20036;-77
2022/08/23 04:11:13;;;;;;;16.80;10.20;;;;;;;;;;5089213;28;20047;-77
2022/08/23 04:13:39;;;;;;;10.57;8.48;;;;;;;;;;5071070;28;20043;-77
2022/08/23 04:16:06;;;;;;;11.65;9.70;;;;;;;;;;5087644;28;20043;-77
2022/08/23 04:18:33;;;;;;;17.08;9.45;;;;;;;;;;5082028;28;20094;-77
2022/08/23 04:21:01;;;;;;;11.68;9.05;;;;;;;;;;5087486;28;20078;-77
2022/08/23 04:23:27;;;;;;;19.30;10.00;;;;;;;;;;5069003;28;20048;-77
2022/08/23 04:25:54;;;;;;;11.70;8.65;;;;;;;;;;5078569;28;20181;-77
2022/08/23 04:28:21;;;;;;;16.35;9.43;;;;;;;;;;5095623;28;20529;-76
2022/08/23 04:30:49;;;;;;;11.90;9.75;;;;;;;;;;5083702;28;20076;-77
2022/08/23 04:33:16;;;;;;;14.90;8.80;;;;;;;;;;5088664;28;20039;-77
2022/08/23 04:35:42;;;;;;;12.65;9.68;;;;;;;;;;5088411;28;20040;-77
2022/08/23 04:38:08;;;;;;;12.55;9.73;;;;;;;;;;5089202;28;20043;-76
2022/08/23 04:43:20;;;;;;;12.43;8.93;;;;;;;;;;5091054;28;20139;-77
2022/08/23 04:45:46;;;;;;;12.18;8.82;;;;;;;;;;5105406;27;20039;-77
2022/08/23 04:48:12;;;;;;;10.18;8.50;;;;;;;;;;5117974;27;20542;-77
2022/08/23 04:50:39;;;;;;;14.45;9.63;;;;;;;;;;5112227;28;20048;-77
2022/08/23 04:53:05;;;;;;;13.38;9.13;;;;;;;;;;5108100;28;20034;-77
2022/08/23 04:55:31;;;;;;;10.95;9.75;;;;;;;;;;5102053;28;20715;-77
2022/08/23 04:57:58;;;;;;;14.73;8.63;;;;;;;;;;5094769;28;20393;-77
2022/08/23 05:00:24;;;;;;;10.88;8.10;;;;;;;;;;5082441;28;20043;-77
2022/08/23 05:02:51;;;;;;;11.77;8.10;;;;;;;;;;5112896;27;20043;-77
2022/08/23 05:05:19;;;;;;;12.93;9.18;;;;;;;;;;5089547;28;20082;-77
2022/08/23 05:07:45;;;;;;;11.40;9.38;;;;;;;;;;5085700;27;20071;-76
2022/08/23 05:10:12;;;;;;;10.60;9.10;;;;;;;;;;5095525;28;20043;-77
2022/08/23 05:12:39;;;;;;;11.13;9.07;;;;;;;;;;5112981;27;20043;-77
2022/08/23 05:15:05;;;;;;;14.45;8.80;;;;;;;;;;5079353;28;20032;-77
2022/08/23 05:17:31;;;;;;;13.60;9.63;;;;;;;;;;5106166;27;20712;-77
2022/08/23 05:19:58;;;;;;;13.15;9.82;;;;;;;;;;5092671;28;20400;-77
2022/08/23 05:22:24;;;;;;;10.10;8.38;;;;;;;;;;5098375;28;20036;-77
2022/08/23 05:24:50;;;;;;;11.82;8.38;;;;;;;;;;5081852;28;20576;-77
2022/08/23 05:27:16;;;;;;;13.48;9.85;;;;;;;;;;5076556;28;20118;-77
2022/08/23 05:29:42;;;;;;;11.65;8.75;;;;;;;;;;5094630;27;20118;-77
2022/08/23 05:32:09;;;;;;;12.70;9.55;;;;;;;;;;5076416;28;20067;-77
2022/08/23 05:34:36;;;;;;;10.88;8.38;;;;;;;;;;5081629;27;20102;-77
2022/08/23 05:37:02;;;;;;;14.93;9.75;;;;;;;;;;5112080;27;20283;-77
2022/08/23 05:39:28;;;;;;;12.32;8.68;;;;;;;;;;5102359;27;20035;-77
2022/08/23 05:41:54;;;;;;;12.95;9.70;;;;;;;;;;5086954;28;20067;-77
2022/08/23 05:44:20;;;;;;;19.17;9.50;;;;;;;;;;5078016;27;20047;-77
2022/08/23 05:46:46;;;;;;;13.85;9.02;;;;;;;;;;5099345;27;20071;-77
2022/08/23 05:49:13;;;;;;;11.65;8.45;;;;;;;;;;5090107;28;20058;-77
2022/08/23 05:51:40;;;;;;;15.32;8.98;;;;;;;;;;5103071;27;20046;-77
2022/08/23 05:54:08;;;;;;;17.10;9.52;;;;;;;;;;5107762;27;20040;-77
2022/08/23 05:56:41;;;;;;;11.80;9.70;;;;;;;;;;5093695;28;20036;-77
2022/08/23 05:59:09;;;;;;;16.23;9.50;;;;;;;;;;5111630;28;20427;-77
2022/08/23 06:01:35;;;;;;;13.55;9.50;;;;;;;;;;5073630;28;20274;-78
2022/08/23 06:04:02;;;;;;;13.20;9.43;;;;;;;;;;5111601;27;20089;-77
2022/08/23 06:06:30;;;;;;;15.40;10.88;;;;;;;;;;5114686;27;20039;-77
2022/08/23 06:08:56;;;;;;;12.32;9.82;;;;;;;;;;5105844;27;20045;-77
2022/08/23 06:11:23;;;;;;;10.52;8.63;;;;;;;;;;5111036;27;20047;-77
2022/08/23 06:13:54;;;;;;;15.85;11.07;;;;;;;;;;5109776;27;20549;-77
2022/08/23 06:16:22;;;;;;;14.85;10.32;;;;;;;;;;5110038;27;20438;-77
2022/08/23 06:18:49;;;;;;;14.05;11.20;;;;;;;;;;5093239;28;20378;-77
2022/08/23 06:21:15;;;;;;;11.40;9.80;;;;;;;;;;5110889;27;20073;-77
2022/08/23 06:23:42;;;;;;;19.42;10.27;;;;;;;;;;5110151;27;20496;-77
2022/08/23 06:26:13;;;;;;;14.60;9.30;;;;;;;;;;5111072;27;20047;-77
2022/08/23 06:28:40;;;;;;;13.93;10.95;;;;;;;;;;5091633;28;20044;-77
2022/08/23 06:31:06;;;;;;;17.30;11.50;;;;;;;;;;5081715;28;20067;-77
2022/08/23 06:33:33;;;;;;;16.88;11.50;;;;;;;;;;5092915;27;20035;-77
2022/08/23 06:36:07;;;;;;;14.48;9.65;;;;;;;;;;5097729;27;20435;-77
2022/08/23 06:38:34;;;;;;;11.45;9.82;;;;;;;;;;5088104;28;20051;-77
2022/08/23 06:41:01;;;;;;;13.80;9.98;;;;;;;;;;5096131;27;20075;-77
2022/08/23 06:43:28;;;;;;;16.17;9.73;;;;;;;;;;5109510;27;20119;-77
2022/08/23 06:45:54;;;;;;;10.38;8.50;;;;;;;;;;5106088;27;20052;-77
2022/08/23 06:48:20;;;;;;;10.65;9.27;;;;;;;;;;5092622;28;20439;-77
2022/08/23 06:50:46;;;;;;;11.80;10.55;;;;;;;;;;5089604;28;20044;-77
2022/08/23 06:53:13;;;;;;;12.50;9.48;;;;;;;;;;5088434;28;20062;-77
2022/08/23 06:55:40;;;;;;;15.95;10.93;;;;;;;;;;5090053;28;20032;-77
2022/08/23 06:58:06;;;;;;;12.25;10.00;;;;;;;;;;5090061;28;20039;-77
2022/08/23 07:00:32;;;;;;;10.95;9.00;;;;;;;;;;5089922;28;20043;-77
2022/08/23 07:02:58;;;;;;;14.30;8.48;;;;;;;;;;5088128;28;20044;-77
2022/08/23 07:05:24;;;;;;;13.35;9.10;;;;;;;;;;5077521;28;20039;-78
2022/08/23 07:07:51;;;;;;;12.52;9.27;;;;;;;;;;5087847;28;20036;-78
2022/08/23 07:10:17;;;;;;;12.70;10.18;;;;;;;;;;5088199;28;20148;-78
2022/08/23 07:12:43;;;;;;;12.48;9.82;;;;;;;;;;5085847;28;20047;-78
2022/08/23 07:15:10;;;;;;;15.00;10.73;;;;;;;;;;5091140;28;20040;-78
2022/08/23 07:17:36;;;;;;;10.10;7.90;;;;;;;;;;5098964;28;20473;-77
2022/08/23 07:20:03;;;;;;;12.43;8.70;;;;;;;;;;5090220;28;20545;-78
2022/08/23 07:22:29;;;;;;;13.02;9.23;;;;;;;;;;5089398;28;20117;-78
2022/08/23 07:24:56;;;;;;;11.57;9.30;;;;;;;;;;5087433;28;20071;-78
2022/08/23 07:27:22;;;;;;;10.05;7.75;;;;;;;;;;5084298;28;20060;-78
2022/08/23 07:29:48;;;;;;;15.75;9.88;;;;;;;;;;5084206;28;20040;-78
2022/08/23 07:32:14;;;;;;;10.18;7.50;;;;;;;;;;5089230;28;20124;-77
2022/08/23 07:34:40;;;;;;;10.23;8.25;;;;;;;;;;5088286;28;20036;-78
2022/08/23 07:37:07;;;;;;;8.45;6.28;;;;;;;;;;5088478;28;20032;-78
2022/08/23 07:39:33;;;;;;;11.60;7.80;;;;;;;;;;5084944;28;20036;-78
2022/08/23 07:42:03;;;;;;;11.93;7.38;;;;;;;;;;5091959;28;20093;-78
2022/08/23 07:44:29;;;;;;;12.38;8.70;;;;;;;;;;5088044;28;20044;-78
2022/08/23 07:46:55;;;;;;;10.57;7.32;;;;;;;;;;5100851;28;20543;-78
2022/08/23 07:49:22;;;;;;;10.43;7.32;;;;;;;;;;5110062;28;20135;-78
2022/08/23 07:51:50;;;;;;;8.23;6.57;;;;;;;;;;5099510;28;20515;-78
2022/08/23 07:54:18;;;;;;;12.75;7.38;;;;;;;;;;5112493;28;20031;-78
2022/08/23 07:56:44;;;;;;;8.20;6.85;;;;;;;;;;5110650;28;20565;-78
2022/08/23 07:59:11;;;;;;;9.85;7.18;;;;;;;;;;5109447;28;20036;-78
2022/08/23 08:01:37;;;;;;;8.95;6.95;;;;;;;;;;5094798;28;20044;-78
2022/08/23 08:04:04;;;;;;;11.15;7.25;;;;;;;;;;5091804;28;20045;-77
2022/08/23 08:06:50;;;;;;;8.05;6.57;;;;;;;;;;5091007;28;20382;-78
2022/08/23 08:09:19;;;;;;;10.75;6.53;;;;;;;;;;5089501;28;20047;-77
2022/08/23 08:11:46;;;;;;;7.18;5.60;;;;;;;;;;5107500;28;20070;-78
2022/08/23 08:14:13;;;;;;;11.40;6.97;;;;;;;;;;5112361;28;20039;-78
2022/08/23 08:16:41;;;;;;;10.20;6.35;;;;;;;;;;5113336;27;20500;-78
2022/08/23 08:19:08;;;;;;;7.93;5.75;;;;;;;;;;5113591;27;20043;-78
2022/08/23 08:21:35;;;;;;;9.50;6.07;;;;;;;;;;5096203;27;20058;-78
2022/08/23 08:24:01;;;;;;;9.55;6.10;;;;;;;;;;5100306;28;20485;-78
2022/08/23 08:26:28;;;;;;;7.10;5.82;;;;;;;;;;5095484;28;20035;-78
2022/08/23 08:28:55;;;;;;;7.07;4.95;;;;;;;;;;5091667;28;20165;-78
2022/08/23 08:31:21;;;;;;;8.38;5.70;;;;;;;;;;5112962;27;20039;-78
2022/08/23 08:33:47;;;;;;;7.22;5.63;;;;;;;;;;5095089;28;20122;-78
2022/08/23 08:36:35;;;;;;;9.90;5.18;;;;;;;;;;5094721;28;20081;-78
2022/08/23 08:39:05;;;;;;;8.20;5.28;;;;;;;;;;5091692;28;20036;-78
2022/08/23 08:41:43;;;;;;;8.10;5.13;;;;;;;;;;5125737;27;20035;-78
2022/08/23 08:44:13;;;;;;;9.55;5.07;;;;;;;;;;5128741;27;20070;-78
2022/08/23 08:46:48;;;;;;;7.45;4.68;;;;;;;;;;5108635;27;20162;-77
2022/08/23 08:49:17;;;;;;;9.98;4.20;;;;;;;;;;5095476;27;20051;-78
2022/08/23 08:51:47;;;;;;;7.82;4.75;;;;;;;;;;5082665;28;20047;-78
2022/08/23 08:54:16;;;;;;;5.68;4.60;;;;;;;;;;5094143;28;20035;-78
2022/08/23 08:56:44;;;;;;;10.30;4.80;;;;;;;;;;5112767;27;20039;-77
2022/08/23 08:59:14;;;;;;;8.07;4.88;;;;;;;;;;5098143;27;20039;-78
2022/08/23 09:01:41;;;;;;;8.82;4.90;;;;;;;;;;5092433;28;20043;-78
2022/08/23 09:04:07;;;;;;;7.45;4.45;;;;;;;;;;5091044;28;20101;-78
2022/08/23 09:07:03;;;;;;;7.72;4.63;;;;;;;;;;5091943;28;20117;-78
2022/08/23 09:09:29;;;;;;;6.95;4.88;;;;;;;;;;5090542;27;20050;-78
2022/08/23 09:12:09;;;;;;;11.35;5.57;;;;;;;;;;5113843;27;20046;-78
2022/08/23 09:14:37;;;;;;;6.50;4.10;;;;;;;;;;5115613;27;20114;-78
2022/08/23 09:17:04;;;;;;;9.57;5.15;;;;;;;;;;5112331;27;20046;-78
2022/08/23 09:19:32;;;;;;;10.88;5.13;;;;;;;;;;5102967;28;20122;-77
2022/08/23 09:22:01;;;;;;;10.60;6.47;;;;;;;;;;5121905;27;20039;-78
2022/08/23 09:24:29;;;;;;;5.60;4.28;;;;;;;;;;5112553;27;20509;-78
2022/08/23 09:26:55;;;;;;;7.97;6.00;;;;;;;;;;5110941;27;20508;-78
2022/08/23 09:29:24;;;;;;;6.75;5.35;;;;;;;;;;5090983;28;20048;-78
2022/08/23 09:31:57;;;;;;;8.95;5.82;;;;;;;;;;5107776;27;20036;-78
2022/08/23 09:34:33;;;;;;;6.88;5.43;;;;;;;;;;5102010;27;20078;-78
2022/08/23 09:37:21;;;;;;;10.65;6.25;;;;;;;;;;5092113;28;20050;-78
2022/08/23 09:39:52;;;;;;;7.53;5.32;;;;;;;;;;5091915;28;20100;-78
2022/08/23 09:42:29;;;;;;;8.60;6.03;;;;;;;;;;5093028;28;20370;-77
2022/08/23 09:44:56;;;;;;;10.43;5.88;;;;;;;;;;5083660;28;20073;-78
2022/08/23 09:47:30;;;;;;;10.50;7.28;;;;;;;;;;5093176;28;20405;-77
2022/08/23 09:50:06;;;;;;;9.13;6.30;;;;;;;;;;5093212;27;20067;-78
2022/08/23 09:52:34;;;;;;;9.57;7.40;;;;;;;;;;5111056;27;20524;-78
2022/08/23 09:55:05;;;;;;;8.40;7.20;;;;;;;;;;5093631;28;20121;-78
2022/08/23 09:57:33;;;;;;;8.18;6.63;;;;;;;;;;5107899;27;20502;-79
2022/08/23 10:00:19;;;;;;;8.40;6.60;;;;;;;;;;5105842;28;20216;-78
2022/08/23 10:02:46;;;;;;;10.88;7.80;;;;;;;;;;5103295;27;20050;-77
2022/08/23 10:05:15;;;;;;;8.77;6.45;;;;;;;;;;5093414;28;20217;-78
2022/08/23 10:07:42;;;;;;;10.48;7.38;;;;;;;;;;5111366;27;20031;-78
2022/08/23 10:10:15;;;;;;;8.90;5.32;;;;;;;;;;5079943;28;20132;-78
2022/08/23 10:12:41;;;;;;;8.07;6.43;;;;;;;;;;5076963;28;20039;-78
2022/08/23 10:15:08;;;;;;;7.95;5.43;;;;;;;;;;5097279;28;20066;-78
2022/08/23 10:18:01;;;;;;;10.45;5.65;;;;;;;;;;5118729;27;20062;-77
2022/08/23 10:20:46;;;;;;;10.00;5.60;;;;;;;;;;5080839;28;20408;-78
2022/08/23 10:23:47;;;;;;;7.70;4.47;;;;;;;;;;5097615;27;20130;-78
2022/08/23 10:26:34;;;;;;;7.13;5.10;;;;;;;;;;5055861;28;20131;-78
2022/08/23 10:32:00;;;;;;;9.68;5.50;;;;;;;;;;5111250;28;20424;-78
2022/08/23 10:34:34;;;;;;;8.10;4.38;;;;;;;;;;5111723;27;20088;-78
2022/08/23 10:37:07;;;;;;;7.78;3.75;;;;;;;;;;5077417;28;20515;-78
2022/08/23 10:39:33;;;;;;;7.70;3.80;;;;;;;;;;5108261;27;20097;-78
2022/08/23 10:42:18;;;;;;;8.07;3.70;;;;;;;;;;5101244;27;20047;-77
2022/08/23 10:44:51;;;;;;;9.05;3.97;;;;;;;;;;5110409;28;20040;-77
2022/08/23 10:47:37;;;;;;;5.32;3.92;;;;;;;;;;5095800;28;20060;-78
2022/08/23 10:50:06;;;;;;;10.93;4.18;;;;;;;;;;5088135;28;20043;-78
2022/08/23 10:52:35;;;;;;;5.40;3.92;;;;;;;;;;5076276;28;20437;-77
2022/08/23 10:55:15;;;;;;;7.60;3.60;;;;;;;;;;5090660;28;20079;-77
2022/08/23 10:57:42;;;;;;;6.93;4.00;;;;;;;;;;5096198;28;20040;-78
2022/08/23 11:00:11;;;;;;;5.75;3.42;;;;;;;;;;5082636;28;20159;-77
2022/08/23 11:02:38;;;;;;;16.75;3.65;;;;;;;;;;5088082;28;20188;-77
2022/08/23 11:05:06;;;;;;;7.25;3.83;;;;;;;;;;5091796;28;20124;-77
2022/08/23 11:07:33;;;;;;;10.77;3.38;;;;;;;;;;5098773;28;20173;-77
2022/08/23 11:10:17;;;;;;;5.38;4.85;;;;;;;;;;5089164;28;20070;-77
2022/08/23 11:12:54;;;;;;;6.90;3.35;;;;;;;;;;5087417;28;20085;-77
2022/08/23 11:15:41;;;;;;;7.50;4.07;;;;;;;;;;5090443;28;20032;-77
2022/08/23 11:18:08;;;;;;;9.30;3.47;;;;;;;;;;5090922;28;20469;-77
2022/08/23 11:20:49;;;;;;;6.63;3.90;;;;;;;;;;5076167;28;20036;-77
2022/08/23 11:23:15;;;;;;;8.48;3.28;;;;;;;;;;5086592;28;20304;-76
2022/08/23 11:25:43;;;;;;;5.78;2.90;;;;;;;;;;5089007;28;20040;-77
2022/08/23 11:28:21;;;;;;;4.95;3.05;;;;;;;;;;5090081;28;20088;-76
2022/08/23 11:30:48;;;;;;;13.55;3.75;;;;;;;;;;5080392;28;20071;-77
2022/08/23 11:33:23;;;;;;;5.75;3.38;;;;;;;;;;5099744;28;20036;-76
2022/08/23 11:36:08;;;;;;;7.78;3.38;;;;;;;;;;5091276;28;20031;-77
2022/08/23 11:38:43;;;;;;;5.75;3.28;;;;;;;;;;5082691;28;20063;-77
2022/08/23 11:41:18;;;;;;;7.88;2.78;;;;;;;;;;5087243;28;20054;-76
2022/08/23 11:43:46;;;;;;;7.05;3.70;;;;;;;;;;5090909;28;20050;-77
2022/08/23 11:46:14;;;;;;;11.05;3.92;;;;;;;;;;5099883;28;20112;-77
2022/08/23 11:48:42;;;;;;;5.88;3.38;;;;;;;;;;5126076;27;20039;-77
2022/08/23 11:51:08;;;;;;;6.30;3.22;;;;;;;;;;5124770;27;20489;-76
2022/08/23 11:53:35;;;;;;;13.52;3.22;;;;;;;;;;5103012;28;20085;-76
2022/08/23 11:56:04;;;;;;;7.25;3.83;;;;;;;;;;5091400;28;20046;-77
2022/08/23 11:58:44;;;;;;;8.45;3.33;;;;;;;;;;5110712;28;20106;-76
2022/08/23 12:01:11;;;;;;;5.07;2.90;;;;;;;;;;5123171;28;20088;-76
2022/08/23 12:03:50;;;;;;;4.95;2.95;;;;;;;;;;5110682;28;20053;-77
2022/08/23 12:06:20;;;;;;;6.15;3.15;;;;;;;;;;5091819;28;20043;-77
2022/08/23 12:08:53;;;;;;;7.72;4.30;;;;;;;;;;5111386;28;20094;-76
2022/08/23 12:11:19;;;;;;;7.65;2.80;;;;;;;;;;5096797;28;20076;-76
2022/08/23 12:13:52;;;;;;;9.70;4.03;;;;;;;;;;5106397;28;20036;-76
2022/08/23 12:16:22;;;;;;;;;;;;;;;;;;5119087;28;20118;-76
2022/08/23 12:18:49;;;;;;;6.38;3.38;;;;;;;;;;5105976;28;20389;-76
2022/08/23 12:21:33;;;;;;;12.98;3.33;;;;;;;;;;5080147;28;20051;-76
2022/08/23 12:24:02;;;;;;;4.78;3.33;;;;;;;;;;5110736;28;20040;-75
2022/08/23 12:26:40;;;;;;;4.22;3.30;;;;;;;;;;5120814;28;20047;-75
2022/08/23 12:29:09;;;;;;;8.55;4.20;;;;;;;;;;5090694;28;20040;-75
2022/08/23 12:31:35;;;;;;;6.28;3.13;;;;;;;;;;5075008;28;20040;-76
2022/08/23 12:34:13;;;;;;;6.88;3.03;;;;;;;;;;5071200;28;20060;-75
2022/08/23 12:36:42;;;;;;;6.65;3.92;;;;;;;;;;5103895;28;20035;-75
2022/08/23 12:39:21;;;;;;;5.43;3.53;;;;;;;;;;5090998;28;20089;-75
2022/08/23 12:41:55;;;;;;;5.93;3.45;;;;;;;;;;5117596;28;20046;-75
2022/08/23 12:44:23;;;;;;;6.15;3.35;;;;;;;;;;5115643;28;20035;-75
2022/08/23 12:46:50;;;;;;;6.72;3.88;;;;;;;;;;5071886;28;20100;-76
2022/08/23 12:49:28;;;;;;;6.15;4.03;;;;;;;;;;5068741;28;20074;-76
2022/08/23 12:51:56;;;;;;;7.13;3.53;;;;;;;;;;5060848;28;20431;-76
2022/08/23 12:54:33;;;;;;;6.93;4.03;;;;;;;;;;5068700;28;20032;-76
2022/08/23 12:57:00;;;;;;;9.98;4.00;;;;;;;;;;5074994;28;20043;-75
2022/08/23 12:59:31;;;;;;;7.60;3.58;;;;;;;;;;5068813;28;20075;-75
2022/08/23 13:01:58;;;;;;;7.30;4.75;;;;;;;;;;5075359;28;20113;-76
2022/08/23 13:04:24;;;;;;;5.45;3.78;;;;;;;;;;5078956;28;20097;-76
2022/08/23 13:06:54;;;;;;;11.13;4.00;;;;;;;;;;5074802;28;20045;-76
2022/08/23 13:09:25;;;;;;;5.72;3.38;;;;;;;;;;5091998;28;20040;-75
2022/08/23 13:11:52;;;;;;;10.20;4.28;;;;;;;;;;5090325;28;20569;-76
2022/08/23 13:14:47;;;;;;;9.80;4.28;;;;;;;;;;5073848;28;20072;-76
2022/08/23 13:17:22;;;;;;;10.73;4.18;;;;;;;;;;5038606;28;20052;-76
2022/08/23 13:19:49;;;;;;;8.38;3.53;;;;;;;;;;5074385;28;20036;-75
2022/08/23 13:22:19;;;;;;;8.18;4.30;;;;;;;;;;5072374;28;20131;-76
2022/08/23 13:24:57;;;;;;;7.65;3.53;;;;;;;;;;5073819;28;20077;-76
2022/08/23 13:27:27;;;;;;;8.25;4.45;;;;;;;;;;5073531;28;20115;-76
2022/08/23 13:29:56;;;;;;;4.68;3.70;;;;;;;;;;5060208;28;20048;-76
2022/08/23 13:32:31;;;;;;;6.28;3.67;;;;;;;;;;5071656;28;20421;-75
2022/08/23 13:35:16;;;;;;;6.88;4.25;;;;;;;;;;5079875;28;20581;-76
2022/08/23 13:37:45;;;;;;;11.15;4.32;;;;;;;;;;5047718;28;20421;-76
2022/08/23 13:40:15;;;;;;;7.00;3.97;;;;;;;;;;5056200;28;20372;-76
2022/08/23 13:42:51;;;;;;;5.93;4.10;;;;;;;;;;5078024;28;20558;-76
2022/08/23 13:45:34;;;;;;;7.63;4.18;;;;;;;;;;5072155;28;20063;-76
2022/08/23 13:48:00;;;;;;;8.60;4.78;;;;;;;;;;5066944;28;20051;-76
2022/08/23 13:50:28;;;;;;;5.88;4.38;;;;;;;;;;5078675;28;20040;-76
2022/08/23 13:52:54;;;;;;;6.32;4.45;;;;;;;;;;5076458;28;20044;-76
2022/08/23 13:55:21;;;;;;;13.77;4.70;;;;;;;;;;5071897;28;20036;-75
2022/08/23 13:57:47;;;;;;;5.07;4.18;;;;;;;;;;5084693;28;20076;-76
2022/08/23 14:00:13;;;;;;;8.15;5.18;;;;;;;;;;5086050;28;20036;-76
2022/08/23 14:02:39;;;;;;;7.45;4.57;;;;;;;;;;5072234;28;20043;-76
2022/08/23 14:05:07;;;;;;;7.55;5.53;;;;;;;;;;5076819;28;20036;-75
2022/08/23 14:07:34;;;;;;;7.82;5.35;;;;;;;;;;5082173;28;20055;-75
2022/08/23 14:10:00;;;;;;;8.98;5.35;;;;;;;;;;5072367;28;20042;-75
2022/08/23 14:12:28;;;;;;;6.38;4.15;;;;;;;;;;5070851;28;20044;-75
2022/08/23 14:14:55;;;;;;;9.43;4.78;;;;;;;;;;5072967;28;20042;-75
2022/08/23 14:17:21;;;;;;;12.50;6.18;;;;;;;;;;5066406;28;20040;-76
2022/08/23 14:19:48;;;;;;;10.07;4.93;;;;;;;;;;5086784;28;20494;-76
2022/08/23 14:22:17;;;;;;;8.95;4.40;;;;;;;;;;5071982;28;20518;-76
2022/08/23 14:24:44;;;;;;;7.53;4.57;;;;;;;;;;5068155;28;20048;-75
2022/08/23 14:27:10;;;;;;;7.32;5.45;;;;;;;;;;5070861;28;20072;-76
2022/08/23 14:29:37;;;;;;;6.43;4.18;;;;;;;;;;5058096;28;20040;-75
2022/08/23 14:32:03;;;;;;;8.63;4.60;;;;;;;;;;5068719;28;20097;-76
2022/08/23 14:34:30;;;;;;;9.60;4.85;;;;;;;;;;5079973;28;20032;-75
2022/08/23 14:36:57;;;;;;;5.25;4.68;;;;;;;;;;5076050;28;20075;-75
2022/08/23 14:39:23;;;;;;;6.65;5.05;;;;;;;;;;5058344;28;20033;-76
2022/08/23 14:41:49;;;;;;;14.15;5.00;;;;;;;;;;5080890;28;20038;-76
2022/08/23 14:44:16;;;;;;;9.23;5.68;;;;;;;;;;5076198;28;20493;-76
2022/08/23 14:46:43;;;;;;;8.45;5.25;;;;;;;;;;5091477;28;20122;-76
2022/08/23 14:49:10;;;;;;;8.77;5.25;;;;;;;;;;5113232;28;20048;-76
2022/08/23 14:51:42;;;;;;;8.90;5.05;;;;;;;;;;5095569;28;20130;-76
2022/08/23 14:54:11;;;;;;;13.77;5.07;;;;;;;;;;5112263;28;20040;-76
2022/08/23 14:56:37;;;;;;;9.05;5.72;;;;;;;;;;5110695;28;20031;-76
2022/08/23 14:59:03;;;;;;;8.48;5.25;;;;;;;;;;5068156;28;20036;-76